Dobrodošli na spletni strani vremenske postaje Senovo. Vse informacije so informativnega značaja, saj vremenska postaja ni del državne mreže meteoroloških postaj. AKTUALNIH OBVESTIL NI.


Sneg/Led Od: 23-02-2018 00:00 Do: 23:59 Opozorilo za: Sneg/Led Stopnja: Rumena info button

Pogled proti Armezu več informacij Pogled proti Armezu


Lisca več informacij Lisca


Radar strel več informacij blitzortung!


opozorilo za sneg/led več informacij rain snow radar


Obiščite še:

Template documentation
and downloads

And another site



Weather Underground, zgodovina - Tekstovno

Dnevni povzetek za Februar 5, 2018 Enote:  Angleško    Metrično   Obe
« Predhodni Dan
Naslednji Dan »
Dnevni Tedenski Mesečni Letni Po meri
  Višja: Nižja: Povprečje:
Temperatura: TemperatureC °F -0.7 °F 0.5 °F
Točka rosišča: DewpointC °F -1.5 °F -0.6 °F
Vlažnost: Humidity % 87 % 92 %
Hitrost vetra: WindSpeedKMH mph 0.0 mph 1.8 mph
Sunki vetra: WindSpeedGustKMH mph - -
Veter:- - SSE
Zračni tlak: PressurehPa in 1019.9 in -
Padavine: 0.0 in    
Historical Graphs
 
 
Tabelarni podarki za Februar 5, 2018
Čas Temperatura Točka rosišča Zračni tlak Veter Hitrost vetra Sunki vetra Vlažnost Intenziteta padavin (urna)
TemperatureC °F DewpointC °F PressurehPa in Calm     Humidity % HourlyPrecipMM in
00:01 -0.3 °F -1.0 °F 1020.9 in Calm     95 % 0.0 in
00:06 -0.3 °F -1.0 °F 1020.9 in ENE 1.3 mph 5.5 mph 95 % 0.0 in
00:11 -0.3 °F -1.0 °F 1019.9 in ENE 2.7 mph 5.5 mph 95 % 0.0 in
00:16 -0.3 °F -1.0 °F 1019.9 in ENE 2.9 mph 4.7 mph 95 % 0.0 in
00:21 -0.3 °F -1.0 °F 1019.9 in East 3.2 mph 5.5 mph 95 % 0.0 in
00:26 -0.4 °F -1.1 °F 1020.9 in ENE 4.0 mph 6.9 mph 95 % 0.0 in
00:31 -0.4 °F -1.1 °F 1020.9 in ENE 4.0 mph 6.9 mph 95 % 0.0 in
00:36 -0.4 °F -1.1 °F 1020.9 in East 2.9 mph 5.5 mph 95 % 0.0 in
00:41 -0.4 °F -1.1 °F 1020.9 in East 2.9 mph 5.0 mph 95 % 0.0 in
00:46 -0.4 °F -1.1 °F 1020.9 in ESE 3.5 mph 5.5 mph 95 % 0.0 in
00:51 -0.4 °F -1.1 °F 1020.9 in ESE 3.9 mph 6.1 mph 95 % 0.0 in
00:56 -0.4 °F -1.1 °F 1019.9 in East 4.2 mph 6.1 mph 95 % 0.0 in
01:01 -0.4 °F -1.1 °F 1019.9 in East 3.9 mph 6.1 mph 95 % 0.0 in
01:06 -0.4 °F -1.1 °F 1019.9 in East 3.2 mph 5.8 mph 95 % 0.0 in
01:11 -0.4 °F -1.1 °F 1020.9 in East 2.6 mph 5.8 mph 95 % 0.0 in
01:16 -0.4 °F -1.1 °F 1020.9 in East 2.7 mph 5.0 mph 95 % 0.0 in
01:21 -0.4 °F -1.1 °F 1020.9 in East 3.5 mph 5.0 mph 95 % 0.0 in
01:26 -0.4 °F -1.1 °F 1020.9 in ENE 3.5 mph 4.7 mph 95 % 0.0 in
01:31 -0.4 °F -1.1 °F 1020.9 in ENE 3.9 mph 5.0 mph 95 % 0.0 in
01:34 -0.4 °F -1.1 °F 1020.9 in ENE 4.2 mph 5.5 mph 95 % 0.0 in
01:39 -0.4 °F -1.1 °F 1020.9 in ENE 4.2 mph 5.8 mph 95 % 0.0 in
01:44 -0.4 °F -1.1 °F 1019.9 in ENE 3.7 mph 5.8 mph 95 % 0.0 in
01:49 -0.4 °F -1.1 °F 1019.9 in ENE 2.4 mph 5.0 mph 95 % 0.0 in
01:54 -0.4 °F -1.1 °F 1019.9 in ENE 0.5 mph 2.6 mph 95 % 0.0 in
01:59 -0.4 °F -1.1 °F 1019.9 in ENE 0.5 mph 4.0 mph 95 % 0.0 in
02:04 -0.4 °F -1.1 °F 1019.9 in East 1.8 mph 4.0 mph 95 % 0.0 in
02:09 -0.4 °F -1.1 °F 1019.9 in East 2.1 mph 4.7 mph 95 % 0.0 in
02:14 -0.4 °F -1.1 °F 1020.9 in East 2.6 mph 4.7 mph 95 % 0.0 in
02:19 -0.4 °F -1.1 °F 1020.9 in East 3.2 mph 5.5 mph 95 % 0.0 in
02:24 -0.3 °F -1.0 °F 1020.9 in East 3.4 mph 5.5 mph 95 % 0.0 in
02:29 -0.3 °F -1.0 °F 1020.9 in ESE 2.9 mph 4.7 mph 95 % 0.0 in
02:34 -0.3 °F -1.0 °F 1020.9 in ESE 1.9 mph 4.7 mph 95 % 0.0 in
02:39 -0.4 °F -1.1 °F 1020.9 in East 2.3 mph 4.7 mph 95 % 0.0 in
02:44 -0.4 °F -1.1 °F 1020.9 in East 2.9 mph 4.7 mph 95 % 0.0 in
02:49 -0.4 °F -1.1 °F 1020.9 in East 3.4 mph 5.0 mph 95 % 0.0 in
02:54 -0.4 °F -1.1 °F 1020.9 in East 3.7 mph 5.5 mph 95 % 0.0 in
02:59 -0.4 °F -1.1 °F 1020.9 in East 3.7 mph 5.5 mph 95 % 0.0 in
03:04 -0.4 °F -1.1 °F 1020.9 in East 3.2 mph 5.5 mph 95 % 0.0 in
03:09 -0.4 °F -1.1 °F 1020.9 in East 3.1 mph 5.0 mph 95 % 0.0 in
03:14 -0.4 °F -1.1 °F 1020.9 in East 3.4 mph 5.0 mph 95 % 0.0 in
03:19 -0.4 °F -1.1 °F 1020.9 in East 3.1 mph 5.0 mph 95 % 0.0 in
03:24 -0.5 °F -1.2 °F 1020.9 in ESE 3.1 mph 5.0 mph 95 % 0.0 in
03:29 -0.5 °F -1.2 °F 1020.9 in ESE 3.2 mph 5.0 mph 95 % 0.0 in
03:34 -0.5 °F -1.2 °F 1020.9 in East 2.7 mph 4.7 mph 95 % 0.0 in
03:39 -0.5 °F -1.2 °F 1020.9 in East 2.3 mph 4.0 mph 95 % 0.0 in
03:44 -0.5 °F -1.2 °F 1021.9 in ESE 2.6 mph 4.0 mph 95 % 0.0 in
03:49 -0.5 °F -1.2 °F 1021.9 in East 2.9 mph 5.5 mph 95 % 0.0 in
03:54 -0.5 °F -1.2 °F 1021.9 in East 2.9 mph 5.5 mph 95 % 0.0 in
03:59 -0.5 °F -1.2 °F 1020.9 in East 2.4 mph 5.0 mph 95 % 0.0 in
04:04 -0.5 °F -1.2 °F 1020.9 in East 1.9 mph 4.3 mph 95 % 0.0 in
04:09 -0.5 °F -1.2 °F 1020.9 in East 1.6 mph 4.3 mph 95 % 0.0 in
04:14 -0.5 °F -1.2 °F 1021.9 in ESE 1.6 mph 4.0 mph 95 % 0.0 in
04:19 -0.5 °F -1.2 °F 1021.9 in ESE 1.1 mph 4.0 mph 95 % 0.0 in
04:24 -0.5 °F -1.2 °F 1021.9 in NNE 0.6 mph 3.2 mph 95 % 0.0 in
04:29 -0.5 °F -1.2 °F 1021.9 in NNE 0.8 mph 3.2 mph 95 % 0.0 in
04:34 -0.6 °F -1.3 °F 1021.9 in ENE 1.4 mph 4.7 mph 95 % 0.0 in
04:39 -0.6 °F -1.3 °F 1021.9 in East 1.6 mph 4.7 mph 95 % 0.0 in
04:44 -0.6 °F -1.3 °F 1021.9 in East 0.5 mph 4.0 mph 95 % 0.0 in
04:49 -0.6 °F -1.3 °F 1021.9 in NE 0.8 mph 3.5 mph 95 % 0.0 in
04:54 -0.6 °F -1.3 °F 1021.9 in ENE 1.3 mph 3.5 mph 95 % 0.0 in
04:59 -0.6 °F -1.3 °F 1022.9 in East 1.6 mph 5.5 mph 95 % 0.0 in
05:04 -0.6 °F -1.3 °F 1022.9 in East 3.1 mph 5.5 mph 95 % 0.0 in
05:09 -0.7 °F -1.4 °F 1022.9 in East 2.7 mph 5.0 mph 95 % 0.0 in
05:14 -0.7 °F -1.4 °F 1022.9 in East 1.8 mph 5.5 mph 95 % 0.0 in
05:19 -0.7 °F -1.4 °F 1022.9 in East 1.4 mph 5.5 mph 95 % 0.0 in
05:24 -0.7 °F -1.4 °F 1022.9 in East 1.1 mph 4.0 mph 95 % 0.0 in
05:29 -0.7 °F -1.4 °F 1022.9 in ENE 0.8 mph 4.0 mph 95 % 0.0 in
05:34 -0.7 °F -1.4 °F 1022.9 in ENE 0.2 mph 1.8 mph 95 % 0.0 in
05:39 -0.7 °F -1.4 °F 1022.9 in Calm     95 % 0.0 in
05:44 -0.7 °F -1.4 °F 1022.9 in East 0.8 mph 4.7 mph 95 % 0.0 in
05:49 -0.7 °F -1.4 °F 1022.9 in East 1.3 mph 4.7 mph 95 % 0.0 in
05:54 -0.7 °F -1.4 °F 1022.9 in East 0.6 mph 4.0 mph 95 % 0.0 in
05:59 -0.7 °F -1.4 °F 1022.9 in Calm   1.4 mph 95 % 0.0 in
06:04 -0.7 °F -1.4 °F 1022.9 in Calm     95 % 0.0 in
06:09 -0.6 °F -1.3 °F 1022.9 in Calm     95 % 0.0 in
06:14 -0.6 °F -1.3 °F 1022.9 in Calm   2.6 mph 95 % 0.0 in
06:19 -0.6 °F -1.3 °F 1022.9 in East 0.5 mph 2.6 mph 95 % 0.0 in
06:24 -0.6 °F -1.3 °F 1022.9 in East 0.5 mph 2.6 mph 95 % 0.0 in
06:29 -0.5 °F -1.2 °F 1022.9 in Calm     95 % 0.0 in
06:34 -0.5 °F -1.2 °F 1022.9 in Calm   2.1 mph 95 % 0.0 in
06:39 -0.5 °F -1.2 °F 1022.9 in Calm   2.1 mph 95 % 0.0 in
06:44 -0.5 °F -1.2 °F 1022.9 in Calm   2.1 mph 95 % 0.0 in
06:49 -0.4 °F -1.1 °F 1022.9 in Calm     95 % 0.0 in
06:54 -0.4 °F -1.1 °F 1022.9 in Calm     95 % 0.0 in
06:59 -0.4 °F -1.1 °F 1022.9 in Calm     95 % 0.0 in
07:04 -0.4 °F -1.1 °F 1022.9 in Calm     95 % 0.0 in
07:09 -0.4 °F -1.1 °F 1022.9 in Calm     95 % 0.0 in
07:14 -0.4 °F -1.1 °F 1022.9 in Calm     95 % 0.0 in
07:19 -0.4 °F -1.1 °F 1022.9 in Calm     95 % 0.0 in
07:24 -0.3 °F -1.0 °F 1022.9 in Calm     95 % 0.0 in
07:29 -0.3 °F -1.0 °F 1021.9 in Calm     95 % 0.0 in
07:34 -0.3 °F -1.0 °F 1021.9 in Calm     95 % 0.0 in
07:39 -0.3 °F -1.0 °F 1021.9 in Calm     95 % 0.0 in
07:44 -0.3 °F -1.0 °F 1022.9 in NE 0.5 mph 3.2 mph 95 % 0.0 in
07:49 -0.2 °F -0.9 °F 1022.9 in NE 1.0 mph 3.2 mph 95 % 0.0 in
07:54 -0.2 °F -0.9 °F 1022.9 in ENE 0.5 mph 2.6 mph 95 % 0.0 in
07:59 -0.1 °F -0.8 °F 1022.9 in East 0.3 mph 2.6 mph 95 % 0.0 in
08:04 -0.1 °F -0.8 °F 1022.9 in ESE 0.5 mph 4.0 mph 95 % 0.0 in
08:09 0.0 °F -0.7 °F 1022.9 in SE 0.6 mph 4.0 mph 95 % 0.0 in
08:14 0.0 °F -0.7 °F 1022.9 in SE 0.5 mph 4.0 mph 95 % 0.0 in
08:19 0.1 °F -0.6 °F 1022.9 in ENE 1.9 mph 6.1 mph 95 % 0.0 in
08:24 0.1 °F -0.6 °F 1022.9 in ENE 2.7 mph 6.1 mph 95 % 0.0 in
08:29 0.1 °F -0.6 °F 1022.9 in ESE 0.8 mph 4.0 mph 95 % 0.0 in
08:34 0.2 °F -0.5 °F 1022.9 in ESE 0.8 mph 4.0 mph 95 % 0.0 in
08:39 0.2 °F -0.5 °F 1022.9 in ESE 1.4 mph 3.2 mph 95 % 0.0 in
08:44 0.3 °F -0.4 °F 1023.9 in ESE 1.1 mph 3.2 mph 95 % 0.0 in
08:49 0.3 °F -0.4 °F 1023.9 in SE 0.3 mph 1.8 mph 95 % 0.0 in
08:54 0.3 °F -0.4 °F 1023.9 in ESE 0.3 mph 2.6 mph 95 % 0.0 in
08:59 0.3 °F -0.4 °F 1023.9 in East 0.3 mph 5.0 mph 95 % 0.0 in
09:04 0.3 °F -0.4 °F 1023.9 in East 0.8 mph 5.0 mph 95 % 0.0 in
09:09 0.3 °F -0.4 °F 1023.9 in East 1.0 mph 3.5 mph 95 % 0.0 in
09:14 0.4 °F -0.3 °F 1023.9 in ESE 1.1 mph 4.3 mph 95 % 0.0 in
09:19 0.4 °F -0.3 °F 1023.9 in ESE 2.4 mph 5.0 mph 95 % 0.0 in
09:24 0.5 °F -0.2 °F 1023.9 in ESE 2.7 mph 5.0 mph 95 % 0.0 in
09:29 0.5 °F -0.2 °F 1023.9 in ESE 1.9 mph 4.3 mph 95 % 0.0 in
09:34 0.6 °F -0.1 °F 1023.9 in ESE 2.1 mph 5.0 mph 95 % 0.0 in
09:39 0.6 °F -0.1 °F 1023.9 in ESE 3.2 mph 5.0 mph 95 % 0.0 in
09:44 0.7 °F 0.0 °F 1022.9 in East 3.4 mph 5.0 mph 95 % 0.0 in
09:49 0.7 °F 0.0 °F 1022.9 in ENE 3.2 mph 5.8 mph 95 % 0.0 in
09:54 0.7 °F 0.0 °F 1022.9 in ENE 2.1 mph 5.8 mph 95 % 0.0 in
09:59 0.7 °F 0.0 °F 1022.9 in ENE 1.4 mph 4.7 mph 95 % 0.0 in
10:04 0.7 °F 0.0 °F 1022.9 in ENE 1.3 mph 4.7 mph 95 % 0.0 in
10:09 0.7 °F 0.0 °F 1023.9 in East 1.3 mph 3.5 mph 95 % 0.0 in
10:14 0.7 °F 0.0 °F 1023.9 in ESE 1.9 mph 3.5 mph 95 % 0.0 in
10:19 0.8 °F 0.1 °F 1023.9 in SSE 1.4 mph 4.0 mph 95 % 0.0 in
10:24 0.8 °F 0.1 °F 1023.9 in SSW 1.8 mph 4.3 mph 95 % 0.0 in
10:30 0.8 °F 0.1 °F 1023.9 in SSW 3.1 mph 4.3 mph 95 % 0.0 in
10:35 0.8 °F 0.1 °F 1023.9 in SW 2.7 mph 4.3 mph 95 % 0.0 in
10:40 0.9 °F 0.2 °F 1023.9 in SW 1.9 mph 4.0 mph 95 % 0.0 in
10:45 0.9 °F 0.2 °F 1023.9 in SW 0.6 mph 3.2 mph 95 % 0.0 in
10:50 0.9 °F 0.2 °F 1023.9 in East 0.3 mph 4.7 mph 95 % 0.0 in
10:55 1.0 °F 0.2 °F 1022.9 in ENE 2.1 mph 5.0 mph 94 % 0.0 in
11:00 1.1 °F 0.2 °F 1022.9 in East 2.9 mph 5.0 mph 94 % 0.0 in
11:05 1.2 °F 0.3 °F 1022.9 in ESE 1.6 mph 4.0 mph 94 % 0.0 in
11:10 1.4 °F 0.6 °F 1022.9 in SE 1.0 mph 3.5 mph 94 % 0.0 in
11:15 1.5 °F 0.8 °F 1022.9 in SE 1.0 mph 3.5 mph 95 % 0.0 in
11:20 1.5 °F 0.7 °F 1022.9 in SSE 1.0 mph 4.3 mph 94 % 0.0 in
11:25 1.6 °F 0.7 °F 1022.9 in SSE 2.4 mph 5.8 mph 94 % 0.0 in
11:30 1.6 °F 0.7 °F 1022.9 in SSE 3.1 mph 5.8 mph 94 % 0.0 in
11:35 1.7 °F 0.8 °F 1022.9 in SSE 2.1 mph 4.3 mph 94 % 0.0 in
11:40 1.8 °F 0.9 °F 1022.9 in ESE 0.6 mph 3.5 mph 94 % 0.0 in
11:45 1.9 °F 1.1 °F 1022.9 in Calm     94 % 0.0 in
11:50 1.9 °F 1.1 °F 1022.9 in Calm     94 % 0.0 in
11:55 1.9 °F 1.1 °F 1021.9 in ENE 0.8 mph 5.0 mph 94 % 0.0 in
12:00 1.8 °F 0.9 °F 1021.9 in ENE 2.9 mph 5.8 mph 94 % 0.0 in
12:05 1.9 °F 1.1 °F 1021.9 in East 3.4 mph 5.8 mph 94 % 0.0 in
12:10 1.9 °F 1.1 °F 1022.9 in SE 2.7 mph 5.0 mph 94 % 0.0 in
12:15 2.0 °F 1.0 °F 1022.9 in South 2.4 mph 5.5 mph 93 % 0.0 in
12:20 1.9 °F 1.1 °F 1022.9 in SW 1.6 mph 5.5 mph 94 % 0.0 in
12:25 1.9 °F 0.9 °F 1022.9 in WSW 1.3 mph 4.7 mph 93 % 0.0 in
12:30 1.9 °F 0.9 °F 1022.9 in West 0.8 mph 3.2 mph 93 % 0.0 in
12:35 1.9 °F 0.9 °F 1022.9 in Calm     93 % 0.0 in
12:40 1.9 °F 0.9 °F 1021.9 in Calm   4.0 mph 93 % 0.0 in
12:45 1.9 °F 0.9 °F 1021.9 in WSW 1.3 mph 4.7 mph 93 % 0.0 in
12:50 1.9 °F 0.9 °F 1021.9 in WSW 3.1 mph 6.9 mph 93 % 0.0 in
12:55 1.9 °F 0.7 °F 1023.9 in WSW 1.9 mph 6.9 mph 92 % 0.0 in
13:00 1.8 °F 0.6 °F 1023.9 in WSW 0.5 mph 2.1 mph 92 % 0.0 in
13:05 1.9 °F 0.7 °F 1023.9 in WSW 0.3 mph 2.6 mph 92 % 0.0 in
13:10 1.9 °F 0.7 °F 1022.9 in NW 0.6 mph 3.5 mph 92 % 0.0 in
13:15 1.9 °F 0.7 °F 1022.9 in WNW 1.4 mph 4.7 mph 92 % 0.0 in
13:20 1.9 °F 0.7 °F 1022.9 in WNW 1.1 mph 4.7 mph 92 % 0.0 in
13:25 1.9 °F 0.7 °F 1022.9 in West 0.8 mph 4.3 mph 92 % 0.0 in
13:30 1.9 °F 0.6 °F 1022.9 in NW 0.8 mph 3.5 mph 91 % 0.0 in
13:35 1.8 °F 0.5 °F 1022.9 in North 1.1 mph 4.3 mph 91 % 0.0 in
13:40 1.8 °F 0.5 °F 1021.9 in North 1.0 mph 4.3 mph 91 % 0.0 in
13:45 1.9 °F 0.6 °F 1021.9 in NE 0.5 mph 4.0 mph 91 % 0.0 in
13:50 1.9 °F 0.6 °F 1021.9 in NE 0.8 mph 4.0 mph 91 % 0.0 in
13:55 1.9 °F 0.6 °F 1021.9 in NNE 0.6 mph 3.2 mph 91 % 0.0 in
14:00 1.9 °F 0.6 °F 1021.9 in NNE 0.3 mph 3.2 mph 91 % 0.0 in
14:05 2.0 °F 0.6 °F 1021.9 in SW 1.0 mph 4.3 mph 90 % 0.0 in
14:10 1.9 °F 0.4 °F 1021.9 in WSW 2.1 mph 4.7 mph 90 % 0.0 in
14:16 1.9 °F 0.4 °F 1021.9 in WSW 1.3 mph 4.7 mph 90 % 0.0 in
14:21 1.9 °F 0.4 °F 1021.9 in SW 1.9 mph 4.3 mph 90 % 0.0 in
14:26 1.9 °F 0.4 °F 1021.9 in WSW 2.4 mph 4.3 mph 90 % 0.0 in
14:31 1.9 °F 0.4 °F 1021.9 in SW 1.3 mph 4.0 mph 90 % 0.0 in
14:36 1.9 °F 0.4 °F 1021.9 in WSW 0.8 mph 4.0 mph 90 % 0.0 in
14:41 1.9 °F 0.4 °F 1021.9 in WNW 1.4 mph 6.1 mph 90 % 0.0 in
14:46 1.9 °F 0.3 °F 1021.9 in WNW 1.6 mph 6.1 mph 89 % 0.0 in
14:51 1.9 °F 0.3 °F 1021.9 in WNW 0.3 mph 2.6 mph 89 % 0.0 in
14:56 1.9 °F 0.3 °F 1021.9 in Calm     89 % 0.0 in
15:01 2.0 °F 0.4 °F 1021.9 in Calm     89 % 0.0 in
15:06 2.0 °F 0.4 °F 1021.9 in Calm     89 % 0.0 in
15:11 1.9 °F 0.3 °F 1021.9 in NW 0.2 mph 2.6 mph 89 % 0.0 in
15:16 1.9 °F 0.3 °F 1021.9 in NE 0.8 mph 4.3 mph 89 % 0.0 in
15:21 2.0 °F 0.4 °F 1021.9 in ENE 2.3 mph 4.7 mph 89 % 0.0 in
15:26 1.9 °F 0.3 °F 1020.9 in NE 2.7 mph 4.7 mph 89 % 0.0 in
15:31 2.0 °F 0.2 °F 1020.9 in East 2.3 mph 4.0 mph 88 % 0.0 in
15:36 2.0 °F 0.2 °F 1020.9 in SE 2.4 mph 4.7 mph 88 % 0.0 in
15:41 2.0 °F 0.2 °F 1020.9 in SSE 2.6 mph 4.7 mph 88 % 0.0 in
15:46 2.0 °F 0.2 °F 1020.9 in SSE 1.8 mph 4.0 mph 88 % 0.0 in
15:51 1.9 °F 0.1 °F 1020.9 in SSE 0.5 mph 3.2 mph 88 % 0.0 in
15:56 1.9 °F 0.1 °F 1020.9 in SW 0.2 mph 3.2 mph 88 % 0.0 in
16:01 1.9 °F 0.1 °F 1020.9 in SW 0.2 mph 3.2 mph 88 % 0.0 in
16:06 1.8 °F 0.0 °F 1020.9 in SW 1.0 mph 3.5 mph 88 % 0.0 in
16:11 1.7 °F -0.1 °F 1020.9 in SW 1.8 mph 3.5 mph 88 % 0.0 in
16:16 1.7 °F -0.1 °F 1020.9 in SW 1.0 mph 2.6 mph 88 % 0.0 in
16:21 1.7 °F -0.1 °F 1020.9 in North 0.2 mph   88 % 0.0 in
16:26 1.7 °F -0.1 °F 1020.9 in Calm     88 % 0.0 in
16:31 1.7 °F -0.1 °F 1020.9 in SSW 0.6 mph 5.5 mph 88 % 0.0 in
16:36 1.7 °F -0.1 °F 1020.9 in SSE 1.6 mph 5.5 mph 88 % 0.0 in
16:41 1.6 °F -0.2 °F 1019.9 in SE 2.6 mph 5.8 mph 88 % 0.0 in
16:46 1.6 °F -0.2 °F 1019.9 in SE 3.5 mph 6.9 mph 88 % 0.0 in
16:51 1.6 °F -0.2 °F 1019.9 in SE 4.8 mph 8.7 mph 88 % 0.0 in
16:56 1.5 °F -0.3 °F 1020.9 in SE 4.5 mph 8.7 mph 88 % 0.0 in
17:01 1.4 °F -0.4 °F 1020.9 in SE 3.1 mph 5.8 mph 88 % 0.0 in
17:06 1.4 °F -0.4 °F 1020.9 in SSE 3.4 mph 5.8 mph 88 % 0.0 in
17:11 1.4 °F -0.4 °F 1019.9 in SSW 3.2 mph 6.4 mph 88 % 0.0 in
17:16 1.3 °F -0.6 °F 1019.9 in WSW 3.4 mph 6.4 mph 87 % 0.0 in
17:21 1.3 °F -0.6 °F 1019.9 in West 3.5 mph 6.4 mph 87 % 0.0 in
17:26 1.2 °F -0.7 °F 1019.9 in SW 3.2 mph 6.4 mph 87 % 0.0 in
17:31 1.1 °F -0.8 °F 1019.9 in SW 3.5 mph 6.4 mph 87 % 0.0 in
17:36 1.1 °F -0.8 °F 1019.9 in SSW 3.1 mph 6.1 mph 87 % 0.0 in
17:41 1.1 °F -0.8 °F 1020.9 in SSW 2.3 mph 5.0 mph 87 % 0.0 in
17:46 1.1 °F -0.8 °F 1020.9 in SSW 2.7 mph 5.5 mph 87 % 0.0 in
17:51 1.1 °F -0.8 °F 1020.9 in SSW 2.9 mph 5.5 mph 87 % 0.0 in
17:54 1.0 °F -0.9 °F 1020.9 in SSW 2.4 mph 5.5 mph 87 % 0.0 in
17:59 1.0 °F -0.9 °F 1020.9 in SSW 2.4 mph 5.8 mph 87 % 0.0 in
18:04 1.0 °F -0.8 °F 1020.9 in SSW 3.7 mph 5.8 mph 88 % 0.0 in
18:09 1.0 °F -0.8 °F 1020.9 in SSW 3.4 mph 5.0 mph 88 % 0.0 in
18:14 1.0 °F -0.8 °F 1020.9 in SSW 2.4 mph 5.5 mph 88 % 0.0 in
18:19 1.0 °F -0.8 °F 1020.9 in South 1.6 mph 5.5 mph 88 % 0.0 in
18:24 1.0 °F -0.8 °F 1020.9 in South 0.8 mph 4.3 mph 88 % 0.0 in
18:29 0.9 °F -0.9 °F 1020.9 in SSE 0.5 mph 3.2 mph 88 % 0.0 in
18:34 0.9 °F -0.9 °F 1020.9 in SSE 1.1 mph 5.0 mph 88 % 0.0 in
18:39 0.9 °F -0.9 °F 1020.9 in SSE 1.3 mph 5.0 mph 88 % 0.0 in
18:44 0.9 °F -0.9 °F 1020.9 in South 1.1 mph 4.3 mph 88 % 0.0 in
18:49 0.9 °F -0.9 °F 1020.9 in South 0.8 mph 3.2 mph 88 % 0.0 in
18:54 0.9 °F -0.9 °F 1020.9 in South 0.3 mph 2.1 mph 88 % 0.0 in
18:59 0.9 °F -0.9 °F 1020.9 in SSW 0.8 mph 3.2 mph 88 % 0.0 in
19:04 0.9 °F -0.9 °F 1020.9 in SSW 0.8 mph 3.2 mph 88 % 0.0 in
19:09 0.9 °F -0.9 °F 1020.9 in South 1.0 mph 4.3 mph 88 % 0.0 in
19:14 0.9 °F -0.9 °F 1021.9 in South 1.3 mph 4.3 mph 88 % 0.0 in
19:19 0.9 °F -0.9 °F 1021.9 in SSE 1.6 mph 5.0 mph 88 % 0.0 in
19:24 0.9 °F -0.9 °F 1021.9 in SSE 1.9 mph 5.5 mph 88 % 0.0 in
19:29 0.9 °F -0.9 °F 1020.9 in SE 2.3 mph 6.4 mph 88 % 0.0 in
19:34 0.8 °F -0.9 °F 1020.9 in SE 1.8 mph 6.4 mph 88 % 0.0 in
19:39 0.8 °F -0.9 °F 1020.9 in SSW 0.6 mph 4.0 mph 88 % 0.0 in
19:44 0.8 °F -0.9 °F 1020.9 in SSW 1.6 mph 6.4 mph 88 % 0.0 in
19:49 0.7 °F -1.1 °F 1020.9 in SW 2.9 mph 6.4 mph 88 % 0.0 in
19:54 0.7 °F -1.1 °F 1020.9 in WSW 2.4 mph 4.3 mph 88 % 0.0 in
19:59 0.7 °F -0.9 °F 1020.9 in WSW 2.3 mph 4.3 mph 89 % 0.0 in
20:04 0.7 °F -0.9 °F 1020.9 in WSW 3.1 mph 6.1 mph 89 % 0.0 in
20:09 0.6 °F -1.0 °F 1020.9 in WSW 3.9 mph 6.1 mph 89 % 0.0 in
20:14 0.6 °F -1.0 °F 1019.9 in SW 4.0 mph 6.1 mph 89 % 0.0 in
20:19 0.6 °F -1.0 °F 1019.9 in SSW 3.5 mph 6.1 mph 89 % 0.0 in
20:24 0.6 °F -1.0 °F 1019.9 in South 3.5 mph 7.9 mph 89 % 0.0 in
20:29 0.6 °F -1.0 °F 1019.9 in South 4.3 mph 7.9 mph 89 % 0.0 in
20:34 0.6 °F -1.0 °F 1019.9 in South 4.3 mph 6.9 mph 89 % 0.0 in
20:39 0.6 °F -1.0 °F 1019.9 in SSW 3.9 mph 5.8 mph 89 % 0.0 in
20:44 0.5 °F -1.1 °F 1020.9 in South 3.7 mph 6.1 mph 89 % 0.0 in
20:49 0.5 °F -1.1 °F 1020.9 in South 3.1 mph 6.1 mph 89 % 0.0 in
20:54 0.5 °F -1.1 °F 1020.9 in SSW 3.5 mph 6.4 mph 89 % 0.0 in
20:59 0.4 °F -1.2 °F 1019.9 in SSW 4.2 mph 6.4 mph 89 % 0.0 in
21:04 0.4 °F -1.2 °F 1019.9 in SSW 1.9 mph 5.5 mph 89 % 0.0 in
21:09 0.4 °F -1.2 °F 1019.9 in SSW 1.0 mph 4.7 mph 89 % 0.0 in
21:14 0.4 °F -1.2 °F 1020.9 in SSW 2.6 mph 5.8 mph 89 % 0.0 in
21:19 0.4 °F -1.2 °F 1020.9 in SW 3.5 mph 6.1 mph 89 % 0.0 in
21:24 0.4 °F -1.2 °F 1020.9 in SSW 4.2 mph 7.6 mph 89 % 0.0 in
21:29 0.4 °F -1.2 °F 1020.9 in South 5.0 mph 9.0 mph 89 % 0.0 in
21:34 0.4 °F -1.2 °F 1020.9 in South 5.3 mph 9.3 mph 89 % 0.0 in
21:39 0.4 °F -1.2 °F 1020.9 in South 4.0 mph 9.3 mph 89 % 0.0 in
21:44 0.4 °F -1.2 °F 1020.9 in South 3.4 mph 6.4 mph 89 % 0.0 in
21:49 0.4 °F -1.2 °F 1020.9 in SSW 3.7 mph 5.8 mph 89 % 0.0 in
21:54 0.4 °F -1.2 °F 1020.9 in SSW 3.4 mph 5.8 mph 89 % 0.0 in
21:59 0.4 °F -1.2 °F 1021.9 in South 3.1 mph 5.8 mph 89 % 0.0 in
22:04 0.3 °F -1.3 °F 1021.9 in South 3.2 mph 5.8 mph 89 % 0.0 in
22:09 0.3 °F -1.3 °F 1021.9 in South 2.6 mph 5.8 mph 89 % 0.0 in
22:14 0.3 °F -1.3 °F 1021.9 in South 2.4 mph 4.7 mph 89 % 0.0 in
22:19 0.3 °F -1.3 °F 1021.9 in SSW 3.5 mph 6.4 mph 89 % 0.0 in
22:24 0.2 °F -1.4 °F 1020.9 in WSW 4.0 mph 6.4 mph 89 % 0.0 in
22:29 0.2 °F -1.4 °F 1020.9 in WSW 3.2 mph 6.4 mph 89 % 0.0 in
22:34 0.1 °F -1.5 °F 1020.9 in WSW 2.9 mph 5.8 mph 89 % 0.0 in
22:39 0.1 °F -1.5 °F 1020.9 in WSW 4.2 mph 6.4 mph 89 % 0.0 in
22:44 0.1 °F -1.5 °F 1020.9 in WSW 4.8 mph 6.4 mph 89 % 0.0 in
22:50 0.1 °F -1.5 °F 1020.9 in SW 3.1 mph 6.1 mph 89 % 0.0 in
22:55 0.1 °F -1.5 °F 1020.9 in SSE 1.8 mph 4.3 mph 89 % 0.0 in
23:00 0.1 °F -1.5 °F 1020.9 in SSE 1.3 mph 4.3 mph 89 % 0.0 in
23:05 0.1 °F -1.5 °F 1020.9 in SW 0.6 mph 4.0 mph 89 % 0.0 in
23:10 0.1 °F -1.5 °F 1020.9 in SW 0.5 mph 1.8 mph 89 % 0.0 in
23:15 0.1 °F -1.5 °F 1020.9 in South 0.5 mph 4.3 mph 89 % 0.0 in
23:20 0.1 °F -1.5 °F 1020.9 in SSW 0.8 mph 4.3 mph 89 % 0.0 in
23:25 0.1 °F -1.3 °F 1020.9 in SSW 0.3 mph 2.6 mph 90 % 0.0 in
23:30 0.1 °F -1.3 °F 1020.9 in Calm     90 % 0.0 in
23:35 0.1 °F -1.3 °F 1020.9 in Calm     90 % 0.0 in
23:40 0.1 °F -1.3 °F 1020.9 in Calm     90 % 0.0 in
23:45 0.1 °F -1.3 °F 1020.9 in Calm     90 % 0.0 in
23:50 0.1 °F -1.3 °F 1020.9 in Calm     90 % 0.0 in
23:55 0.1 °F -1.3 °F 1020.9 in Calm     90 % 0.0 in
Vremenska postaja Senovo
Podatki zbrani iz Weather Underground - 3 mb

Script developed by  Jim McMurry - jmcmurry@mwt.net Adapted for the template by  Wim van der Kuil - Leuven-Template.eu

Vremenski podatki so objavljeni na:

European Weather Network

WeatherCloud

Weather Underground

AWEKAS

HAMweather, WeatherForYou, PWS Weather

MapView

Geostik

Slovenia weather network

Oprema, ki se uporablja:

Vremenski program
Cumulus

Vremenski server
Asus

Cumulus

Asus